sensor_id;sensor_type;location;lat;lon;timestamp;pressure;altitude;pressure_sealevel;temperature;humidity
65131;BME280;51709;54.912;8.316;2023-10-08T00:02:05;102056.69;;;13.96;65.17
65131;BME280;51709;54.912;8.316;2023-10-08T00:07:26;102053.25;;;13.94;65.13
65131;BME280;51709;54.912;8.316;2023-10-08T00:12:48;102070.63;;;13.93;65.02
65131;BME280;51709;54.912;8.316;2023-10-08T00:18:11;102059.00;;;13.91;64.96
65131;BME280;51709;54.912;8.316;2023-10-08T00:23:32;102053.53;;;13.91;64.80
65131;BME280;51709;54.912;8.316;2023-10-08T00:28:57;102062.03;;;13.88;64.53
65131;BME280;51709;54.912;8.316;2023-10-08T00:34:19;102058.44;;;13.87;64.21
65131;BME280;51709;54.912;8.316;2023-10-08T00:39:41;102050.41;;;13.86;64.27
65131;BME280;51709;54.912;8.316;2023-10-08T00:45:02;102076.84;;;13.85;64.06
65131;BME280;51709;54.912;8.316;2023-10-08T00:50:25;102059.63;;;13.85;64.07
65131;BME280;51709;54.912;8.316;2023-10-08T00:55:51;102070.53;;;13.85;63.89
65131;BME280;51709;54.912;8.316;2023-10-08T01:01:19;102065.91;;;13.85;63.82
65131;BME280;51709;54.912;8.316;2023-10-08T01:06:42;102074.00;;;13.87;63.88
65131;BME280;51709;54.912;8.316;2023-10-08T01:17:29;102049.41;;;13.87;64.01
65131;BME280;51709;54.912;8.316;2023-10-08T01:22:53;102081.16;;;13.88;64.17
65131;BME280;51709;54.912;8.316;2023-10-08T01:28:13;102088.22;;;13.90;64.29
65131;BME280;51709;54.912;8.316;2023-10-08T01:33:46;102081.56;;;13.93;64.54
65131;BME280;51709;54.912;8.316;2023-10-08T01:39:13;102078.00;;;13.92;64.42
65131;BME280;51709;54.912;8.316;2023-10-08T01:44:36;102104.47;;;13.92;64.49
65131;BME280;51709;54.912;8.316;2023-10-08T01:49:57;102097.25;;;13.91;64.44
65131;BME280;51709;54.912;8.316;2023-10-08T01:55:25;102091.78;;;13.91;64.24
65131;BME280;51709;54.912;8.316;2023-10-08T02:00:46;102115.38;;;13.92;64.25
65131;BME280;51709;54.912;8.316;2023-10-08T02:06:08;102098.28;;;13.90;64.08
65131;BME280;51709;54.912;8.316;2023-10-08T02:11:29;102130.19;;;13.89;64.07
65131;BME280;51709;54.912;8.316;2023-10-08T02:16:50;102137.81;;;13.86;64.30
65131;BME280;51709;54.912;8.316;2023-10-08T02:22:16;102150.19;;;13.80;64.26
65131;BME280;51709;54.912;8.316;2023-10-08T02:27:37;102158.84;;;13.76;64.35
65131;BME280;51709;54.912;8.316;2023-10-08T02:32:58;102151.66;;;13.75;64.47
65131;BME280;51709;54.912;8.316;2023-10-08T02:38:19;102171.06;;;13.72;64.60
65131;BME280;51709;54.912;8.316;2023-10-08T02:43:57;102139.59;;;13.68;64.40
65131;BME280;51709;54.912;8.316;2023-10-08T02:49:21;102185.59;;;13.62;64.67
65131;BME280;51709;54.912;8.316;2023-10-08T02:54:43;102188.63;;;13.59;64.75
65131;BME280;51709;54.912;8.316;2023-10-08T03:00:04;102221.56;;;13.58;64.73
65131;BME280;51709;54.912;8.316;2023-10-08T03:05:32;102236.34;;;13.55;64.74
65131;BME280;51709;54.912;8.316;2023-10-08T03:10:57;102221.00;;;13.54;65.00
65131;BME280;51709;54.912;8.316;2023-10-08T03:16:24;102234.63;;;13.54;64.81
65131;BME280;51709;54.912;8.316;2023-10-08T03:21:50;102233.19;;;13.50;64.50
65131;BME280;51709;54.912;8.316;2023-10-08T03:27:16;102229.88;;;13.47;64.36
65131;BME280;51709;54.912;8.316;2023-10-08T03:32:43;102232.78;;;13.45;64.28
65131;BME280;51709;54.912;8.316;2023-10-08T03:38:11;102248.28;;;13.45;64.18
65131;BME280;51709;54.912;8.316;2023-10-08T03:44:04;102238.50;;;13.42;64.02
65131;BME280;51709;54.912;8.316;2023-10-08T03:49:34;102256.88;;;13.40;63.91
65131;BME280;51709;54.912;8.316;2023-10-08T03:54:58;102245.22;;;13.38;63.97
65131;BME280;51709;54.912;8.316;2023-10-08T04:00:45;102264.94;;;13.32;63.88
65131;BME280;51709;54.912;8.316;2023-10-08T04:06:06;102268.94;;;13.28;64.04
65131;BME280;51709;54.912;8.316;2023-10-08T04:11:37;102284.88;;;13.23;64.19
65131;BME280;51709;54.912;8.316;2023-10-08T04:17:14;102305.13;;;13.21;64.20
65131;BME280;51709;54.912;8.316;2023-10-08T04:22:43;102319.94;;;13.18;64.43
65131;BME280;51709;54.912;8.316;2023-10-08T04:28:04;102330.13;;;13.16;64.26
65131;BME280;51709;54.912;8.316;2023-10-08T04:33:25;102335.84;;;13.13;64.46
65131;BME280;51709;54.912;8.316;2023-10-08T04:38:45;102337.00;;;13.11;64.23
65131;BME280;51709;54.912;8.316;2023-10-08T04:44:11;102332.06;;;13.05;64.30
65131;BME280;51709;54.912;8.316;2023-10-08T04:49:36;102347.38;;;12.96;64.32
65131;BME280;51709;54.912;8.316;2023-10-08T04:55:05;102365.31;;;12.89;64.25
65131;BME280;51709;54.912;8.316;2023-10-08T05:00:36;102364.97;;;12.83;64.42
65131;BME280;51709;54.912;8.316;2023-10-08T05:06:14;102375.56;;;12.76;64.42
65131;BME280;51709;54.912;8.316;2023-10-08T05:11:48;102387.13;;;12.69;64.25
65131;BME280;51709;54.912;8.316;2023-10-08T05:17:12;102397.59;;;12.63;64.34
65131;BME280;51709;54.912;8.316;2023-10-08T05:22:39;102395.53;;;12.56;64.45
65131;BME280;51709;54.912;8.316;2023-10-08T05:28:16;102402.50;;;12.49;64.43
65131;BME280;51709;54.912;8.316;2023-10-08T05:33:44;102397.72;;;12.41;64.54
65131;BME280;51709;54.912;8.316;2023-10-08T05:39:35;102417.34;;;12.35;64.54
65131;BME280;51709;54.912;8.316;2023-10-08T05:44:59;102424.03;;;12.31;64.75
65131;BME280;51709;54.912;8.316;2023-10-08T05:50:46;102436.06;;;12.29;64.88
65131;BME280;51709;54.912;8.316;2023-10-08T05:56:16;102438.03;;;12.27;64.75
65131;BME280;51709;54.912;8.316;2023-10-08T06:01:49;102449.06;;;12.25;65.21
65131;BME280;51709;54.912;8.316;2023-10-08T06:07:18;102449.06;;;12.25;65.16
65131;BME280;51709;54.912;8.316;2023-10-08T06:12:53;102452.94;;;12.23;65.18
65131;BME280;51709;54.912;8.316;2023-10-08T06:18:27;102451.19;;;12.22;65.19
65131;BME280;51709;54.912;8.316;2023-10-08T06:23:48;102462.38;;;12.19;65.49
65131;BME280;51709;54.912;8.316;2023-10-08T06:29:11;102460.63;;;12.18;65.30
65131;BME280;51709;54.912;8.316;2023-10-08T06:34:39;102475.00;;;12.20;65.73
65131;BME280;51709;54.912;8.316;2023-10-08T06:40:00;102471.00;;;12.24;66.06
65131;BME280;51709;54.912;8.316;2023-10-08T06:45:22;102473.25;;;12.30;66.27
65131;BME280;51709;54.912;8.316;2023-10-08T06:50:42;102481.47;;;12.39;66.63
65131;BME280;51709;54.912;8.316;2023-10-08T06:56:03;102490.22;;;12.54;66.93
65131;BME280;51709;54.912;8.316;2023-10-08T07:01:24;102505.28;;;12.69;67.10
65131;BME280;51709;54.912;8.316;2023-10-08T07:06:45;102504.22;;;12.81;67.24
65131;BME280;51709;54.912;8.316;2023-10-08T07:12:09;102514.09;;;12.93;67.44
65131;BME280;51709;54.912;8.316;2023-10-08T07:17:34;102527.69;;;13.04;67.64
65131;BME280;51709;54.912;8.316;2023-10-08T07:23:01;102531.63;;;13.11;67.68
65131;BME280;51709;54.912;8.316;2023-10-08T07:28:22;102530.34;;;13.15;67.96
65131;BME280;51709;54.912;8.316;2023-10-08T07:33:47;102528.41;;;13.27;67.94
65131;BME280;51709;54.912;8.316;2023-10-08T07:39:09;102538.25;;;13.39;67.94
65131;BME280;51709;54.912;8.316;2023-10-08T07:44:41;102547.25;;;13.50;68.07
65131;BME280;51709;54.912;8.316;2023-10-08T07:50:02;102548.16;;;13.60;67.76
65131;BME280;51709;54.912;8.316;2023-10-08T07:55:34;102558.69;;;13.75;67.98
65131;BME280;51709;54.912;8.316;2023-10-08T08:00:55;102573.75;;;13.90;67.88
65131;BME280;51709;54.912;8.316;2023-10-08T08:06:16;102572.38;;;14.05;67.84
65131;BME280;51709;54.912;8.316;2023-10-08T08:11:37;102571.09;;;14.18;67.59
65131;BME280;51709;54.912;8.316;2023-10-08T08:16:58;102577.81;;;14.35;67.72
65131;BME280;51709;54.912;8.316;2023-10-08T08:22:33;102585.16;;;14.53;67.45
65131;BME280;51709;54.912;8.316;2023-10-08T08:28:00;102592.25;;;14.75;67.22
65131;BME280;51709;54.912;8.316;2023-10-08T08:33:21;102601.22;;;14.96;67.06
65131;BME280;51709;54.912;8.316;2023-10-08T08:38:50;102609.00;;;15.10;66.72
65131;BME280;51709;54.912;8.316;2023-10-08T08:44:11;102617.22;;;15.20;66.79
65131;BME280;51709;54.912;8.316;2023-10-08T08:49:35;102623.69;;;15.38;66.52
65131;BME280;51709;54.912;8.316;2023-10-08T08:54:59;102631.75;;;15.49;66.03
65131;BME280;51709;54.912;8.316;2023-10-08T09:00:24;102625.97;;;15.61;65.91
65131;BME280;51709;54.912;8.316;2023-10-08T09:05:49;102640.22;;;15.84;65.91
65131;BME280;51709;54.912;8.316;2023-10-08T09:11:16;102609.63;;;16.16;65.81
65131;BME280;51709;54.912;8.316;2023-10-08T09:16:37;102627.72;;;16.36;64.95
65131;BME280;51709;54.912;8.316;2023-10-08T09:22:08;102627.41;;;16.39;64.20
65131;BME280;51709;54.912;8.316;2023-10-08T09:27:29;102649.88;;;16.61;63.95
65131;BME280;51709;54.912;8.316;2023-10-08T09:32:51;102660.75;;;16.98;63.96
65131;BME280;51709;54.912;8.316;2023-10-08T09:38:15;102665.56;;;17.31;63.11
65131;BME280;51709;54.912;8.316;2023-10-08T09:43:44;102665.06;;;17.71;62.13
65131;BME280;51709;54.912;8.316;2023-10-08T09:49:06;102669.91;;;18.62;60.85
65131;BME280;51709;54.912;8.316;2023-10-08T09:54:31;102664.91;;;19.07;58.79
65131;BME280;51709;54.912;8.316;2023-10-08T09:59:54;102660.69;;;18.79;59.24
65131;BME280;51709;54.912;8.316;2023-10-08T10:05:21;102648.28;;;18.67;58.67
65131;BME280;51709;54.912;8.316;2023-10-08T10:10:42;102637.31;;;18.91;57.84
65131;BME280;51709;54.912;8.316;2023-10-08T10:16:09;102634.59;;;18.99;57.32
65131;BME280;51709;54.912;8.316;2023-10-08T10:21:32;102620.41;;;18.78;57.24
65131;BME280;51709;54.912;8.316;2023-10-08T10:27:09;102612.44;;;18.59;56.76
65131;BME280;51709;54.912;8.316;2023-10-08T10:32:30;102622.56;;;18.50;56.24
65131;BME280;51709;54.912;8.316;2023-10-08T10:37:51;102604.34;;;18.57;55.80
65131;BME280;51709;54.912;8.316;2023-10-08T10:43:11;102598.78;;;18.49;55.14
65131;BME280;51709;54.912;8.316;2023-10-08T10:48:36;102592.84;;;18.28;55.04
65131;BME280;51709;54.912;8.316;2023-10-08T10:53:59;102591.44;;;18.16;54.83
65131;BME280;51709;54.912;8.316;2023-10-08T10:59:29;102592.94;;;18.11;54.24
65131;BME280;51709;54.912;8.316;2023-10-08T11:05:00;102618.25;;;18.14;53.82
65131;BME280;51709;54.912;8.316;2023-10-08T11:10:30;102604.03;;;18.27;53.01
65131;BME280;51709;54.912;8.316;2023-10-08T11:15:52;102606.81;;;18.35;52.76
65131;BME280;51709;54.912;8.316;2023-10-08T11:21:13;102601.09;;;18.28;52.30
65131;BME280;51709;54.912;8.316;2023-10-08T11:26:37;102597.72;;;18.01;52.19
65131;BME280;51709;54.912;8.316;2023-10-08T11:32:15;102591.72;;;17.80;51.95
65131;BME280;51709;54.912;8.316;2023-10-08T11:37:37;102602.69;;;17.71;51.71
65131;BME280;51709;54.912;8.316;2023-10-08T11:42:59;102601.22;;;17.59;51.58
65131;BME280;51709;54.912;8.316;2023-10-08T11:48:19;102627.25;;;17.47;50.96
65131;BME280;51709;54.912;8.316;2023-10-08T11:53:50;102617.78;;;17.32;51.22
65131;BME280;51709;54.912;8.316;2023-10-08T11:59:12;102632.53;;;17.23;51.08
65131;BME280;51709;54.912;8.316;2023-10-08T12:04:32;102635.88;;;17.17;50.98
65131;BME280;51709;54.912;8.316;2023-10-08T12:09:53;102657.31;;;17.14;50.90
65131;BME280;51709;54.912;8.316;2023-10-08T12:15:14;102653.63;;;17.05;50.77
65131;BME280;51709;54.912;8.316;2023-10-08T12:20:40;102663.97;;;16.94;50.75
65131;BME280;51709;54.912;8.316;2023-10-08T12:26:04;102670.72;;;16.82;50.60
65131;BME280;51709;54.912;8.316;2023-10-08T12:31:27;102676.44;;;16.61;50.28
65131;BME280;51709;54.912;8.316;2023-10-08T12:36:49;102674.28;;;16.28;50.36
65131;BME280;51709;54.912;8.316;2023-10-08T12:42:11;102665.34;;;16.26;50.51
65131;BME280;51709;54.912;8.316;2023-10-08T12:47:32;102665.03;;;16.29;50.42
65131;BME280;51709;54.912;8.316;2023-10-08T12:52:53;102663.00;;;16.31;50.48
65131;BME280;51709;54.912;8.316;2023-10-08T12:58:18;102666.88;;;16.28;50.35
65131;BME280;51709;54.912;8.316;2023-10-08T13:03:39;102664.16;;;16.28;50.56
65131;BME280;51709;54.912;8.316;2023-10-08T13:09:03;102664.31;;;16.27;50.32
65131;BME280;51709;54.912;8.316;2023-10-08T13:14:29;102648.44;;;16.21;50.89
65131;BME280;51709;54.912;8.316;2023-10-08T13:19:50;102654.94;;;16.20;50.71
65131;BME280;51709;54.912;8.316;2023-10-08T13:25:13;102654.94;;;16.20;50.86
65131;BME280;51709;54.912;8.316;2023-10-08T13:30:37;102650.06;;;16.14;50.76
65131;BME280;51709;54.912;8.316;2023-10-08T13:35:58;102648.38;;;16.03;50.90
65131;BME280;51709;54.912;8.316;2023-10-08T13:41:37;102643.22;;;15.91;50.78
65131;BME280;51709;54.912;8.316;2023-10-08T13:47:02;102633.13;;;15.82;50.80
65131;BME280;51709;54.912;8.316;2023-10-08T13:52:26;102621.91;;;15.75;50.52
65131;BME280;51709;54.912;8.316;2023-10-08T13:57:46;102616.88;;;15.70;50.50
65131;BME280;51709;54.912;8.316;2023-10-08T14:03:09;102619.03;;;15.67;50.79
65131;BME280;51709;54.912;8.316;2023-10-08T14:08:30;102601.47;;;15.60;50.74
65131;BME280;51709;54.912;8.316;2023-10-08T14:13:52;102601.75;;;15.57;50.70
65131;BME280;51709;54.912;8.316;2023-10-08T14:19:13;102578.97;;;15.56;50.89
65131;BME280;51709;54.912;8.316;2023-10-08T14:24:35;102567.00;;;15.57;51.22
65131;BME280;51709;54.912;8.316;2023-10-08T14:29:59;102548.56;;;15.59;51.24
65131;BME280;51709;54.912;8.316;2023-10-08T14:35:26;102549.94;;;15.63;51.38
65131;BME280;51709;54.912;8.316;2023-10-08T14:41:05;102541.16;;;15.69;51.35
65131;BME280;51709;54.912;8.316;2023-10-08T14:46:44;102540.13;;;15.70;51.35
65131;BME280;51709;54.912;8.316;2023-10-08T14:52:05;102536.38;;;15.72;51.26
65131;BME280;51709;54.912;8.316;2023-10-08T14:57:25;102522.69;;;15.72;51.28
65131;BME280;51709;54.912;8.316;2023-10-08T15:02:47;102515.44;;;15.70;51.28
65131;BME280;51709;54.912;8.316;2023-10-08T15:08:08;102499.88;;;15.71;51.53
65131;BME280;51709;54.912;8.316;2023-10-08T15:13:35;102496.41;;;15.69;51.52
65131;BME280;51709;54.912;8.316;2023-10-08T15:18:59;102496.41;;;15.69;51.70
65131;BME280;51709;54.912;8.316;2023-10-08T15:24:22;102499.31;;;15.67;51.53
65131;BME280;51709;54.912;8.316;2023-10-08T15:29:43;102514.31;;;15.63;51.47
65131;BME280;51709;54.912;8.316;2023-10-08T15:35:08;102516.66;;;15.58;51.37
65131;BME280;51709;54.912;8.316;2023-10-08T15:40:34;102508.94;;;15.44;51.34
65131;BME280;51709;54.912;8.316;2023-10-08T15:45:56;102526.84;;;15.20;51.41
65131;BME280;51709;54.912;8.316;2023-10-08T15:51:17;102507.53;;;15.12;51.54
65131;BME280;51709;54.912;8.316;2023-10-08T15:56:45;102475.81;;;15.09;51.81
65131;BME280;51709;54.912;8.316;2023-10-08T16:02:07;102473.25;;;15.08;51.72
65131;BME280;51709;54.912;8.316;2023-10-08T16:07:41;102458.84;;;15.06;51.82
65131;BME280;51709;54.912;8.316;2023-10-08T16:13:03;102463.91;;;15.01;51.92
65131;BME280;51709;54.912;8.316;2023-10-08T16:18:25;102484.50;;;14.95;52.10
65131;BME280;51709;54.912;8.316;2023-10-08T16:23:46;102481.34;;;14.90;52.17
65131;BME280;51709;54.912;8.316;2023-10-08T16:29:08;102467.56;;;14.82;52.42
65131;BME280;51709;54.912;8.316;2023-10-08T16:34:32;102460.91;;;14.75;52.46
65131;BME280;51709;54.912;8.316;2023-10-08T16:39:54;102460.94;;;14.65;52.97
65131;BME280;51709;54.912;8.316;2023-10-08T16:45:17;102485.97;;;14.61;53.04
65131;BME280;51709;54.912;8.316;2023-10-08T16:50:38;102460.50;;;14.60;53.24
65131;BME280;51709;54.912;8.316;2023-10-08T16:55:59;102431.41;;;14.59;53.18
65131;BME280;51709;54.912;8.316;2023-10-08T17:01:20;102415.16;;;14.58;53.19
65131;BME280;51709;54.912;8.316;2023-10-08T17:06:41;102404.50;;;14.55;53.33
65131;BME280;51709;54.912;8.316;2023-10-08T17:12:03;102406.78;;;14.50;53.44
65131;BME280;51709;54.912;8.316;2023-10-08T17:17:23;102406.09;;;14.48;53.38
65131;BME280;51709;54.912;8.316;2023-10-08T17:22:45;102414.31;;;14.48;53.45
65131;BME280;51709;54.912;8.316;2023-10-08T17:28:06;102412.56;;;14.47;53.55
65131;BME280;51709;54.912;8.316;2023-10-08T17:33:26;102413.44;;;14.38;53.59
65131;BME280;51709;54.912;8.316;2023-10-08T17:38:49;102411.16;;;14.33;53.72
65131;BME280;51709;54.912;8.316;2023-10-08T17:44:10;102380.59;;;14.28;53.75
65131;BME280;51709;54.912;8.316;2023-10-08T17:49:32;102361.75;;;14.25;53.85
65131;BME280;51709;54.912;8.316;2023-10-08T17:54:57;102371.09;;;14.23;53.80
65131;BME280;51709;54.912;8.316;2023-10-08T18:00:19;102361.75;;;14.25;54.03
65131;BME280;51709;54.912;8.316;2023-10-08T18:05:42;102353.28;;;14.28;54.13
65131;BME280;51709;54.912;8.316;2023-10-08T18:11:04;102370.53;;;14.29;54.28
65131;BME280;51709;54.912;8.316;2023-10-08T18:16:26;102339.75;;;14.27;54.34
65131;BME280;51709;54.912;8.316;2023-10-08T18:21:46;102340.31;;;14.21;54.45
65131;BME280;51709;54.912;8.316;2023-10-08T18:27:07;102313.53;;;14.15;54.46
65131;BME280;51709;54.912;8.316;2023-10-08T18:32:30;102312.41;;;14.08;54.32
65131;BME280;51709;54.912;8.316;2023-10-08T18:37:51;102311.81;;;13.95;54.78
65131;BME280;51709;54.912;8.316;2023-10-08T18:43:17;102304.09;;;13.90;54.86
65131;BME280;51709;54.912;8.316;2023-10-08T18:48:39;102303.78;;;13.84;55.06
65131;BME280;51709;54.912;8.316;2023-10-08T18:54:03;102293.28;;;13.79;55.33
65131;BME280;51709;54.912;8.316;2023-10-08T18:59:23;102304.63;;;13.75;55.38
65131;BME280;51709;54.912;8.316;2023-10-08T19:04:45;102301.47;;;13.70;55.62
65131;BME280;51709;54.912;8.316;2023-10-08T19:10:07;102291.09;;;13.63;56.03
65131;BME280;51709;54.912;8.316;2023-10-08T19:15:31;102293.41;;;13.58;56.13
65131;BME280;51709;54.912;8.316;2023-10-08T19:20:54;102291.25;;;13.52;56.37
65131;BME280;51709;54.912;8.316;2023-10-08T19:26:14;102286.22;;;13.48;56.75
65131;BME280;51709;54.912;8.316;2023-10-08T19:31:38;102282.19;;;13.42;56.90
65131;BME280;51709;54.912;8.316;2023-10-08T19:36:59;102282.63;;;13.38;57.22
65131;BME280;51709;54.912;8.316;2023-10-08T19:42:22;102277.84;;;13.30;57.59
65131;BME280;51709;54.912;8.316;2023-10-08T19:47:44;102255.41;;;13.17;57.87
65131;BME280;51709;54.912;8.316;2023-10-08T19:53:14;102255.34;;;12.98;57.97
65131;BME280;51709;54.912;8.316;2023-10-08T19:58:34;102260.84;;;12.68;58.60
65131;BME280;51709;54.912;8.316;2023-10-08T20:03:55;102250.13;;;12.46;59.03
65131;BME280;51709;54.912;8.316;2023-10-08T20:09:16;102251.31;;;12.32;59.53
65131;BME280;51709;54.912;8.316;2023-10-08T20:14:39;102253.81;;;12.15;60.08
65131;BME280;51709;54.912;8.316;2023-10-08T20:20:02;102250.69;;;11.99;60.36
65131;BME280;51709;54.912;8.316;2023-10-08T20:25:34;102237.41;;;11.85;61.15
65131;BME280;51709;54.912;8.316;2023-10-08T20:30:58;102232.28;;;11.71;61.23
65131;BME280;51709;54.912;8.316;2023-10-08T20:36:20;102203.63;;;11.55;62.13
65131;BME280;51709;54.912;8.316;2023-10-08T20:41:42;102204.03;;;11.51;62.62
65131;BME280;51709;54.912;8.316;2023-10-08T20:47:03;102197.25;;;11.45;63.05
65131;BME280;51709;54.912;8.316;2023-10-08T20:52:25;102183.88;;;11.42;63.46
65131;BME280;51709;54.912;8.316;2023-10-08T20:57:48;102180.19;;;11.43;63.89
65131;BME280;51709;54.912;8.316;2023-10-08T21:03:09;102185.75;;;11.42;64.27
65131;BME280;51709;54.912;8.316;2023-10-08T21:08:34;102178.56;;;11.41;64.67
65131;BME280;51709;54.912;8.316;2023-10-08T21:13:56;102176.00;;;11.39;64.76
65131;BME280;51709;54.912;8.316;2023-10-08T21:19:16;102162.66;;;11.36;65.46
65131;BME280;51709;54.912;8.316;2023-10-08T21:24:38;102155.00;;;11.30;65.72
65131;BME280;51709;54.912;8.316;2023-10-08T21:29:59;102144.25;;;11.29;66.27
65131;BME280;51709;54.912;8.316;2023-10-08T21:35:21;102145.88;;;11.31;66.66
65131;BME280;51709;54.912;8.316;2023-10-08T21:40:42;102161.19;;;11.32;66.93
65131;BME280;51709;54.912;8.316;2023-10-08T21:46:03;102146.31;;;11.36;67.56
65131;BME280;51709;54.912;8.316;2023-10-08T21:51:28;102131.72;;;11.37;67.88
65131;BME280;51709;54.912;8.316;2023-10-08T21:56:49;102131.84;;;11.36;67.88
65131;BME280;51709;54.912;8.316;2023-10-08T22:02:11;102113.22;;;11.31;68.13
65131;BME280;51709;54.912;8.316;2023-10-08T22:07:31;102117.19;;;11.27;68.48
65131;BME280;51709;54.912;8.316;2023-10-08T22:12:52;102108.56;;;11.22;68.54
65131;BME280;51709;54.912;8.316;2023-10-08T22:18:15;102091.66;;;11.19;68.85
65131;BME280;51709;54.912;8.316;2023-10-08T22:23:48;102070.53;;;11.11;68.83
65131;BME280;51709;54.912;8.316;2023-10-08T22:29:11;102061.19;;;11.04;68.79
65131;BME280;51709;54.912;8.316;2023-10-08T22:34:32;102052.53;;;10.99;69.12
65131;BME280;51709;54.912;8.316;2023-10-08T22:39:56;102044.63;;;10.96;69.31
65131;BME280;51709;54.912;8.316;2023-10-08T22:45:19;102028.84;;;10.90;69.32
65131;BME280;51709;54.912;8.316;2023-10-08T22:50:45;102018.50;;;10.84;69.36
65131;BME280;51709;54.912;8.316;2023-10-08T22:56:11;102009.63;;;10.82;69.55
65131;BME280;51709;54.912;8.316;2023-10-08T23:01:33;101984.41;;;10.80;69.99
65131;BME280;51709;54.912;8.316;2023-10-08T23:06:53;101968.38;;;10.77;70.02
65131;BME280;51709;54.912;8.316;2023-10-08T23:12:15;101967.50;;;10.77;70.27
65131;BME280;51709;54.912;8.316;2023-10-08T23:17:39;101950.59;;;10.73;70.63
65131;BME280;51709;54.912;8.316;2023-10-08T23:23:00;101936.16;;;10.73;70.81
65131;BME280;51709;54.912;8.316;2023-10-08T23:28:21;101934.56;;;10.70;71.00
65131;BME280;51709;54.912;8.316;2023-10-08T23:33:42;101937.41;;;10.69;70.98
65131;BME280;51709;54.912;8.316;2023-10-08T23:39:08;101913.34;;;10.64;71.32
65131;BME280;51709;54.912;8.316;2023-10-08T23:44:38;101888.28;;;10.61;71.25
65131;BME280;51709;54.912;8.316;2023-10-08T23:50:02;101896.59;;;10.59;71.43
65131;BME280;51709;54.912;8.316;2023-10-08T23:55:32;101909.31;;;10.59;71.74
